createdAt,value
2019-05-19T00:01:25.954Z,21.50
2019-05-19T00:03:55.528Z,21.51
2019-05-19T00:06:25.166Z,21.34
2019-05-19T00:08:54.770Z,21.29
2019-05-19T00:11:24.427Z,21.32
2019-05-19T00:13:54.033Z,21.48
2019-05-19T00:16:23.629Z,21.79
2019-05-19T00:18:53.258Z,21.83
2019-05-19T00:21:22.869Z,21.75
2019-05-19T00:23:52.525Z,21.44
2019-05-19T00:26:22.093Z,21.49
2019-05-19T00:28:51.704Z,21.31
2019-05-19T00:31:21.339Z,21.13
2019-05-19T00:33:50.932Z,21.06
2019-05-19T00:36:20.544Z,20.89
2019-05-19T00:38:50.220Z,21.02
2019-05-19T00:41:19.801Z,20.94
2019-05-19T00:43:49.422Z,20.88
2019-05-19T00:46:19.011Z,20.66
2019-05-19T00:48:48.685Z,20.46
2019-05-19T00:51:18.556Z,20.22
2019-05-19T00:53:48.137Z,20.22
2019-05-19T00:56:18.419Z,20.54
2019-05-19T00:58:49.366Z,20.73
2019-05-19T01:01:19.061Z,20.81
2019-05-19T01:03:48.675Z,20.59
2019-05-19T01:06:18.278Z,20.67
2019-05-19T01:08:47.869Z,20.53
2019-05-19T01:11:17.591Z,20.49
2019-05-19T01:13:47.231Z,20.69
2019-05-19T01:16:16.835Z,20.62
2019-05-19T01:18:46.443Z,20.68
2019-05-19T01:21:16.036Z,20.63
2019-05-19T01:23:45.669Z,20.68
2019-05-19T01:26:15.342Z,20.47
2019-05-19T01:28:44.958Z,20.30
2019-05-19T01:31:14.542Z,20.38
2019-05-19T01:33:44.274Z,20.36
2019-05-19T01:36:13.928Z,20.46
2019-05-19T01:38:43.541Z,20.39
2019-05-19T01:41:13.187Z,20.63
2019-05-19T01:43:42.793Z,20.53
2019-05-19T01:46:12.418Z,20.54
2019-05-19T01:48:42.018Z,20.71
2019-05-19T01:51:11.774Z,20.77
2019-05-19T01:53:41.373Z,20.73
2019-05-19T01:56:10.953Z,20.89
2019-05-19T01:58:40.574Z,20.81
2019-05-19T02:01:10.215Z,20.64
2019-05-19T02:03:39.867Z,20.44
2019-05-19T02:06:09.592Z,20.29
2019-05-19T02:08:39.220Z,20.39
2019-05-19T02:11:08.851Z,20.31
2019-05-19T02:13:38.454Z,20.22
2019-05-19T02:16:08.144Z,19.84
2019-05-19T02:18:37.763Z,19.37
2019-05-19T02:21:07.401Z,19.10
2019-05-19T02:23:36.982Z,19.28
2019-05-19T02:26:06.570Z,19.19
2019-05-19T02:28:36.217Z,19.09
2019-05-19T02:31:05.823Z,19.33
2019-05-19T02:33:36.030Z,19.53
2019-05-19T02:36:05.834Z,19.88
2019-05-19T02:38:35.428Z,20.01
2019-05-19T02:41:06.888Z,20.04
2019-05-19T02:43:37.411Z,19.84
2019-05-19T02:46:07.717Z,19.66
2019-05-19T02:48:39.161Z,19.45
2019-05-19T02:51:10.436Z,19.64
2019-05-19T02:53:40.436Z,19.71
2019-05-19T02:56:11.043Z,19.75
2019-05-19T02:58:41.964Z,19.86
2019-05-19T03:01:11.601Z,19.96
2019-05-19T03:03:41.197Z,19.95
2019-05-19T03:06:10.807Z,20.28
2019-05-19T03:08:40.419Z,20.13
2019-05-19T03:11:10.046Z,20.24
2019-05-19T03:13:39.635Z,20.30
2019-05-19T03:16:09.287Z,20.17
2019-05-19T03:18:38.920Z,20.23
2019-05-19T03:21:11.405Z,20.30
2019-05-19T03:23:39.831Z,19.86
2019-05-19T03:26:09.476Z,20.01
2019-05-19T03:28:39.166Z,19.97
2019-05-19T03:31:19.510Z,20.69
2019-05-19T03:33:49.847Z,20.23
2019-05-19T03:36:19.460Z,20.10
2019-05-19T03:38:49.118Z,20.22
2019-05-19T03:41:18.799Z,20.50
2019-05-19T03:43:48.446Z,20.54
2019-05-19T03:46:18.167Z,20.30
2019-05-19T03:48:47.760Z,19.77
2019-05-19T03:51:30.005Z,19.50
2019-05-19T03:53:48.731Z,19.43
2019-05-19T03:56:18.387Z,19.29
2019-05-19T03:58:47.993Z,19.22
2019-05-19T04:01:17.666Z,19.52
2019-05-19T04:03:47.290Z,19.46
2019-05-19T04:06:16.916Z,19.55
2019-05-19T04:08:46.549Z,19.54
2019-05-19T04:11:16.111Z,19.67
2019-05-19T04:13:45.753Z,19.79
2019-05-19T04:16:15.359Z,19.78
2019-05-19T04:18:44.963Z,19.79
2019-05-19T04:21:14.592Z,19.88
2019-05-19T04:23:44.198Z,19.84
2019-05-19T04:26:13.803Z,19.94
2019-05-19T04:28:43.401Z,19.93
2019-05-19T04:31:13.009Z,19.97
2019-05-19T04:33:42.667Z,20.10
2019-05-19T04:36:12.297Z,20.08
2019-05-19T04:38:41.879Z,20.16
2019-05-19T04:41:11.473Z,19.91
2019-05-19T04:43:41.110Z,20.03
2019-05-19T04:46:10.771Z,19.85
2019-05-19T04:48:40.404Z,19.65
2019-05-19T04:51:09.974Z,19.68
2019-05-19T04:53:39.581Z,19.63
2019-05-19T04:56:09.210Z,19.49
2019-05-19T04:58:38.866Z,19.41
2019-05-19T05:01:08.488Z,19.52
2019-05-19T05:03:38.091Z,19.43
2019-05-19T05:06:07.897Z,19.45
2019-05-19T05:08:37.503Z,19.56
2019-05-19T05:11:07.137Z,19.86
2019-05-19T05:13:36.747Z,19.75
2019-05-19T05:16:06.361Z,20.39
2019-05-19T05:18:35.982Z,20.24
2019-05-19T05:21:05.583Z,19.99
2019-05-19T05:23:35.255Z,20.14
2019-05-19T05:26:04.839Z,20.31
2019-05-19T05:28:34.491Z,20.51
2019-05-19T05:31:04.143Z,20.64
2019-05-19T05:33:33.807Z,20.75
2019-05-19T05:36:03.532Z,21.37
2019-05-19T05:38:33.145Z,21.13
2019-05-19T05:41:02.754Z,20.99
2019-05-19T05:43:32.339Z,21.23
2019-05-19T05:46:01.928Z,20.78
2019-05-19T05:48:31.574Z,20.79
2019-05-19T05:51:01.170Z,20.93
2019-05-19T05:53:30.780Z,22.04
2019-05-19T05:56:00.363Z,21.37
2019-05-19T05:58:29.944Z,21.16
2019-05-19T06:00:59.594Z,21.83
2019-05-19T06:03:29.203Z,21.42
2019-05-19T06:05:58.798Z,21.10
2019-05-19T06:08:28.401Z,21.23
2019-05-19T06:10:58.011Z,21.34
2019-05-19T06:13:27.720Z,21.33
2019-05-19T06:15:57.351Z,21.54
2019-05-19T06:18:26.949Z,21.72
2019-05-19T06:20:56.562Z,22.05
2019-05-19T06:23:26.222Z,21.74
2019-05-19T06:25:55.822Z,22.39
2019-05-19T06:28:25.452Z,22.19
2019-05-19T06:30:55.089Z,22.05
2019-05-19T06:33:24.734Z,22.15
2019-05-19T06:35:54.353Z,22.44
2019-05-19T06:38:24.002Z,22.39
2019-05-19T06:40:53.731Z,22.43
2019-05-19T06:43:23.351Z,22.66
2019-05-19T06:45:52.977Z,23.14
2019-05-19T06:48:22.584Z,22.79
2019-05-19T06:50:52.156Z,23.00
2019-05-19T06:53:21.820Z,22.98
2019-05-19T06:55:51.424Z,23.00
2019-05-19T06:58:21.016Z,23.01
2019-05-19T07:00:50.657Z,23.13
2019-05-19T07:03:20.191Z,23.59
2019-05-19T07:05:49.860Z,23.49
2019-05-19T07:08:19.414Z,23.67
2019-05-19T07:10:48.987Z,24.17
2019-05-19T07:13:18.596Z,23.88
2019-05-19T07:15:48.201Z,23.70
2019-05-19T07:18:17.841Z,23.48
2019-05-19T07:20:47.408Z,23.40
2019-05-19T07:23:27.687Z,23.53
2019-05-19T07:25:48.369Z,23.78
2019-05-19T07:28:18.036Z,24.18
2019-05-19T07:30:47.698Z,24.49
2019-05-19T07:33:17.267Z,24.47
2019-05-19T07:35:46.875Z,24.23
2019-05-19T07:38:16.474Z,24.45
2019-05-19T07:40:46.138Z,24.63
2019-05-19T07:43:15.849Z,25.32
2019-05-19T07:45:45.404Z,24.90
2019-05-19T07:48:14.971Z,25.37
2019-05-19T07:50:44.591Z,25.47
2019-05-19T07:53:14.243Z,25.68
2019-05-19T07:55:43.971Z,25.60
2019-05-19T07:58:13.584Z,26.12
2019-05-19T08:00:43.146Z,25.85
2019-05-19T08:03:12.745Z,26.03
2019-05-19T08:05:42.356Z,25.88
2019-05-19T08:08:12.068Z,25.90
2019-05-19T08:10:41.708Z,25.68
2019-05-19T08:13:11.333Z,25.40
2019-05-19T08:15:40.951Z,25.40
2019-05-19T08:18:10.619Z,26.08
2019-05-19T08:20:40.243Z,26.18
2019-05-19T08:23:09.860Z,25.90
2019-05-19T08:25:39.482Z,26.08
2019-05-19T08:28:09.365Z,25.81
2019-05-19T08:30:39.002Z,26.19
2019-05-19T08:33:08.668Z,25.84
2019-05-19T08:35:38.298Z,25.83
2019-05-19T08:38:07.919Z,25.97
2019-05-19T08:40:37.539Z,26.17
2019-05-19T08:43:07.082Z,26.19
2019-05-19T08:45:36.735Z,26.17
2019-05-19T08:48:06.346Z,26.56
2019-05-19T08:50:36.055Z,26.29
2019-05-19T08:53:05.666Z,26.02
2019-05-19T08:55:35.259Z,26.49
2019-05-19T08:58:05.043Z,26.94
2019-05-19T09:00:38.246Z,26.73
2019-05-19T09:03:06.000Z,27.13
2019-05-19T09:05:35.593Z,26.57
2019-05-19T09:08:05.172Z,25.98
2019-05-19T09:10:34.831Z,25.92
2019-05-19T09:13:04.428Z,25.93
2019-05-19T09:15:34.040Z,26.01
2019-05-19T09:18:03.686Z,25.93
2019-05-19T09:20:33.281Z,25.63
2019-05-19T09:23:02.997Z,25.81
2019-05-19T09:25:32.636Z,25.97
2019-05-19T09:28:02.243Z,26.75
2019-05-19T09:30:31.891Z,26.88
2019-05-19T09:33:01.565Z,27.07
2019-05-19T09:35:31.189Z,26.80
2019-05-19T09:38:00.798Z,27.42
2019-05-19T09:40:30.437Z,27.67
2019-05-19T09:42:59.993Z,27.70
2019-05-19T09:45:29.629Z,27.45
2019-05-19T09:47:59.294Z,27.85
2019-05-19T09:50:28.903Z,28.25
2019-05-19T09:52:58.515Z,28.16
2019-05-19T09:55:28.122Z,28.55
2019-05-19T09:57:57.713Z,28.36
2019-05-19T10:00:27.445Z,28.48
2019-05-19T10:02:56.980Z,28.44
2019-05-19T10:05:26.589Z,28.36
2019-05-19T10:07:56.164Z,28.37
2019-05-19T10:10:41.086Z,28.39
2019-05-19T10:13:10.765Z,28.80
2019-05-19T10:15:40.375Z,28.87
2019-05-19T10:18:10.088Z,28.97
2019-05-19T10:20:39.694Z,28.99
2019-05-19T10:23:09.295Z,28.47
2019-05-19T10:25:38.857Z,28.50
2019-05-19T10:28:08.447Z,29.65
2019-05-19T10:30:38.092Z,28.82
2019-05-19T10:33:07.755Z,28.72
2019-05-19T10:35:37.429Z,29.42
2019-05-19T10:38:06.956Z,29.01
2019-05-19T10:40:36.525Z,28.69
2019-05-19T10:43:06.122Z,29.06
2019-05-19T10:45:36.274Z,28.41
2019-05-19T10:48:05.872Z,28.09
2019-05-19T10:50:35.434Z,28.38
2019-05-19T10:53:05.015Z,28.19
2019-05-19T10:55:36.766Z,28.29
2019-05-19T10:58:06.075Z,28.16
2019-05-19T11:00:35.795Z,28.19
2019-05-19T11:03:05.411Z,28.21
2019-05-19T11:05:34.968Z,28.40
2019-05-19T11:08:04.606Z,28.69
2019-05-19T11:10:34.209Z,29.05
2019-05-19T11:13:03.773Z,29.28
2019-05-19T11:15:33.372Z,29.84
2019-05-19T11:18:06.242Z,29.62
2019-05-19T11:20:34.366Z,29.60
2019-05-19T11:23:03.975Z,29.76
2019-05-19T11:25:34.548Z,29.76
2019-05-19T11:28:04.150Z,29.75
2019-05-19T11:30:33.730Z,30.23
2019-05-19T11:33:03.352Z,30.47
2019-05-19T11:35:32.923Z,30.44
2019-05-19T11:38:02.536Z,30.02
2019-05-19T11:40:32.106Z,30.30
2019-05-19T11:43:01.838Z,30.70
2019-05-19T11:45:31.506Z,31.00
2019-05-19T11:48:01.120Z,30.43
2019-05-19T11:50:30.684Z,30.49
2019-05-19T11:53:00.289Z,30.47
2019-05-19T11:55:29.882Z,30.72
2019-05-19T11:57:59.586Z,30.99
2019-05-19T12:00:29.153Z,30.64
2019-05-19T12:02:58.713Z,30.63
2019-05-19T12:05:28.336Z,30.66
2019-05-19T12:07:57.921Z,30.77
2019-05-19T12:10:27.564Z,30.61
2019-05-19T12:12:57.191Z,30.89
2019-05-19T12:15:26.769Z,30.96
2019-05-19T12:17:56.407Z,31.49
2019-05-19T12:20:25.989Z,31.45
2019-05-19T12:22:55.633Z,31.54
2019-05-19T12:25:25.236Z,31.87
2019-05-19T12:27:54.859Z,31.50
2019-05-19T12:30:24.565Z,32.11
2019-05-19T12:32:54.187Z,31.63
2019-05-19T12:35:23.877Z,31.93
2019-05-19T12:37:53.523Z,31.63
2019-05-19T12:40:23.279Z,31.00
2019-05-19T12:42:52.935Z,32.10
2019-05-19T12:45:22.737Z,32.00
2019-05-19T12:47:52.745Z,31.16
2019-05-19T12:50:22.541Z,31.31
2019-05-19T12:52:52.121Z,31.11
2019-05-19T12:55:21.834Z,31.53
2019-05-19T12:57:52.238Z,31.40
2019-05-19T13:00:22.040Z,31.47
2019-05-19T13:02:51.632Z,30.95
2019-05-19T13:05:21.210Z,30.66
2019-05-19T13:07:50.819Z,30.60
2019-05-19T13:10:20.572Z,30.40
2019-05-19T13:12:50.182Z,30.91
2019-05-19T13:15:20.007Z,30.72
2019-05-19T13:17:49.696Z,31.01
2019-05-19T13:20:19.749Z,30.96
2019-05-19T13:22:49.298Z,31.08
2019-05-19T13:25:18.928Z,31.14
2019-05-19T13:27:48.563Z,31.62
2019-05-19T13:30:18.629Z,31.65
2019-05-19T13:32:48.228Z,31.74
2019-05-19T13:35:18.011Z,31.26
2019-05-19T13:37:47.678Z,31.82
2019-05-19T13:40:17.394Z,32.08
2019-05-19T13:42:46.960Z,31.87
2019-05-19T13:45:16.726Z,32.00
2019-05-19T13:47:46.465Z,32.39
2019-05-19T13:50:16.310Z,32.11
2019-05-19T13:52:47.029Z,31.88
2019-05-19T13:55:17.110Z,31.95
2019-05-19T13:57:46.694Z,31.63
2019-05-19T14:00:16.608Z,31.92
2019-05-19T14:02:46.190Z,31.99
2019-05-19T14:05:15.854Z,31.85
2019-05-19T14:07:45.447Z,31.69
2019-05-19T14:10:15.447Z,31.76
2019-05-19T14:12:45.031Z,31.92
2019-05-19T14:15:14.705Z,31.45
2019-05-19T14:17:44.341Z,31.67
2019-05-19T14:20:14.397Z,31.94
2019-05-19T14:22:43.980Z,31.51
2019-05-19T14:25:13.753Z,31.28
2019-05-19T14:27:43.318Z,31.49
2019-05-19T14:30:13.423Z,31.33
2019-05-19T14:32:42.999Z,31.44
2019-05-19T14:35:12.731Z,31.82
2019-05-19T14:37:42.328Z,31.50
2019-05-19T14:40:12.012Z,31.17
2019-05-19T14:42:49.177Z,31.19
2019-05-19T14:45:19.685Z,31.69
2019-05-19T14:47:49.349Z,31.54
2019-05-19T14:50:20.506Z,31.46
2019-05-19T14:52:50.064Z,31.36
2019-05-19T14:55:20.400Z,31.85
2019-05-19T14:57:49.978Z,31.54
2019-05-19T15:00:19.995Z,31.62
2019-05-19T15:02:49.710Z,31.39
2019-05-19T15:05:19.504Z,31.18
2019-05-19T15:07:49.073Z,31.12
2019-05-19T15:10:18.763Z,31.05
2019-05-19T15:12:48.339Z,31.03
2019-05-19T15:15:18.148Z,31.12
2019-05-19T15:17:47.769Z,31.34
2019-05-19T15:20:17.330Z,31.40
2019-05-19T15:22:46.951Z,31.51
2019-05-19T15:25:16.620Z,31.58
2019-05-19T15:27:59.335Z,31.64
2019-05-19T15:30:17.822Z,31.68
2019-05-19T15:32:47.405Z,31.78
2019-05-19T15:35:17.248Z,31.80
2019-05-19T15:37:46.827Z,31.82
2019-05-19T15:40:16.426Z,31.81
2019-05-19T15:42:46.054Z,32.01
2019-05-19T15:45:15.901Z,31.28
2019-05-19T15:47:45.535Z,31.08
2019-05-19T15:50:15.621Z,30.74
2019-05-19T15:52:45.261Z,30.83
2019-05-19T15:55:15.066Z,30.67
2019-05-19T15:57:44.697Z,30.71
2019-05-19T16:00:15.416Z,30.95
2019-05-19T16:02:45.028Z,30.91
2019-05-19T16:05:15.089Z,30.83
2019-05-19T16:07:44.692Z,30.90
2019-05-19T16:10:15.200Z,31.08
2019-05-19T16:12:44.838Z,30.81
2019-05-19T16:15:14.770Z,30.94
2019-05-19T16:17:44.363Z,30.89
2019-05-19T16:20:14.140Z,30.99
2019-05-19T16:22:43.702Z,30.96
2019-05-19T16:25:13.566Z,30.76
2019-05-19T16:27:43.206Z,30.35
2019-05-19T16:30:13.098Z,30.29
2019-05-19T16:32:42.723Z,29.90
2019-05-19T16:35:12.608Z,30.10
2019-05-19T16:37:42.289Z,29.88
2019-05-19T16:40:12.493Z,29.58
2019-05-19T16:42:42.119Z,29.85
2019-05-19T16:45:12.055Z,29.81
2019-05-19T16:47:41.678Z,29.55
2019-05-19T16:50:11.577Z,30.05
2019-05-19T16:52:41.273Z,29.60
2019-05-19T16:55:21.644Z,29.92
2019-05-19T16:57:51.245Z,29.84
2019-05-19T17:00:21.265Z,29.74
2019-05-19T17:02:50.890Z,29.68
2019-05-19T17:05:20.635Z,29.61
2019-05-19T17:07:50.386Z,29.39
2019-05-19T17:10:20.578Z,28.99
2019-05-19T17:12:50.194Z,28.74
2019-05-19T17:15:20.090Z,28.56
2019-05-19T17:17:49.666Z,28.32
2019-05-19T17:20:20.485Z,27.98
2019-05-19T17:22:50.095Z,28.09
2019-05-19T17:25:19.694Z,27.84
2019-05-19T17:27:49.291Z,27.66
2019-05-19T17:30:19.398Z,27.37
2019-05-19T17:32:49.031Z,27.25
2019-05-19T17:35:18.846Z,27.06
2019-05-19T17:37:48.452Z,27.00
2019-05-19T17:40:18.574Z,26.93
2019-05-19T17:42:48.185Z,26.70
2019-05-19T17:45:18.927Z,26.53
2019-05-19T17:47:48.505Z,26.47
2019-05-19T17:50:21.518Z,26.25
2019-05-19T17:52:51.189Z,26.17
2019-05-19T17:55:20.805Z,26.56
2019-05-19T17:57:50.742Z,26.21
2019-05-19T18:00:26.711Z,26.28
2019-05-19T18:02:56.353Z,26.55
2019-05-19T18:05:26.191Z,26.39
2019-05-19T18:07:55.810Z,26.68
2019-05-19T18:10:25.452Z,26.30
2019-05-19T18:12:55.068Z,25.90
2019-05-19T18:15:24.718Z,25.94
2019-05-19T18:17:54.356Z,26.00
2019-05-19T18:20:24.447Z,26.03
2019-05-19T18:22:54.189Z,25.67
2019-05-19T18:25:23.871Z,25.51
2019-05-19T18:27:53.551Z,25.27
2019-05-19T18:30:23.313Z,24.93
2019-05-19T18:32:52.931Z,24.79
2019-05-19T18:35:22.588Z,24.59
2019-05-19T18:37:52.240Z,24.57
2019-05-19T18:40:22.456Z,24.59
2019-05-19T18:42:52.078Z,24.73
2019-05-19T18:45:21.852Z,25.06
2019-05-19T18:47:51.455Z,24.77
2019-05-19T18:50:21.049Z,24.75
2019-05-19T18:52:50.822Z,24.67
2019-05-19T18:55:20.423Z,24.54
2019-05-19T18:57:50.034Z,24.54
2019-05-19T19:00:37.553Z,24.74
2019-05-19T19:03:07.757Z,25.12
2019-05-19T19:05:37.707Z,25.76
2019-05-19T19:08:07.377Z,25.76
2019-05-19T19:10:36.996Z,25.68
2019-05-19T19:13:06.701Z,25.48
2019-05-19T19:15:36.296Z,25.54
2019-05-19T19:18:08.370Z,25.59
2019-05-19T19:20:38.013Z,25.95
2019-05-19T19:23:07.590Z,26.16
2019-05-19T19:25:37.176Z,26.38
2019-05-19T19:28:06.774Z,26.42
2019-05-19T19:30:36.420Z,26.60
2019-05-19T19:33:06.155Z,26.63
2019-05-19T19:35:39.300Z,26.64
2019-05-19T19:38:07.245Z,26.41
2019-05-19T19:40:36.873Z,26.21
2019-05-19T19:43:06.524Z,26.32
2019-05-19T19:45:36.156Z,26.91
2019-05-19T19:48:05.857Z,26.48
2019-05-19T19:50:35.682Z,26.08
2019-05-19T19:53:05.346Z,25.48
2019-05-19T19:55:34.953Z,25.56
2019-05-19T19:58:04.610Z,24.59
2019-05-19T20:00:44.947Z,24.81
2019-05-19T20:03:16.057Z,24.43
2019-05-19T20:05:45.730Z,24.14
2019-05-19T20:08:15.321Z,23.99
2019-05-19T20:10:44.913Z,23.88
2019-05-19T20:13:14.518Z,23.64
2019-05-19T20:15:44.145Z,23.41
2019-05-19T20:18:13.707Z,23.56
2019-05-19T20:20:43.356Z,23.37
2019-05-19T20:23:13.011Z,23.37
2019-05-19T20:25:42.628Z,23.46
2019-05-19T20:28:12.245Z,23.50
2019-05-19T20:30:41.840Z,23.63
2019-05-19T20:33:11.550Z,23.70
2019-05-19T20:35:41.150Z,23.70
2019-05-19T20:38:10.738Z,23.87
2019-05-19T20:40:40.465Z,23.79
2019-05-19T20:43:10.167Z,23.69
2019-05-19T20:45:39.901Z,23.53
2019-05-19T20:48:09.607Z,23.57
2019-05-19T20:50:39.392Z,23.52
2019-05-19T20:53:09.061Z,23.66
2019-05-19T20:55:38.756Z,23.84
2019-05-19T20:58:08.489Z,24.06
2019-05-19T21:00:50.159Z,24.07
2019-05-19T21:03:09.536Z,24.04
2019-05-19T21:05:39.295Z,24.07
2019-05-19T21:08:08.998Z,23.89
2019-05-19T21:10:38.780Z,23.89
2019-05-19T21:13:08.486Z,23.97
2019-05-19T21:15:38.112Z,24.48
2019-05-19T21:18:07.744Z,24.48
2019-05-19T21:20:37.457Z,24.48
2019-05-19T21:23:07.157Z,24.30
2019-05-19T21:25:37.063Z,23.90
2019-05-19T21:28:06.766Z,24.36
2019-05-19T21:30:36.459Z,24.44
2019-05-19T21:33:06.086Z,24.44
2019-05-19T21:35:35.952Z,24.21
2019-05-19T21:38:05.649Z,24.42
2019-05-19T21:40:35.307Z,24.38
2019-05-19T21:43:05.047Z,24.22
2019-05-19T21:45:34.728Z,24.12
2019-05-19T21:48:04.477Z,24.37
2019-05-19T21:50:34.124Z,24.34
2019-05-19T21:53:06.468Z,24.35
2019-05-19T21:55:35.276Z,24.41
2019-05-19T21:58:04.981Z,24.34
2019-05-19T22:00:35.274Z,24.22
2019-05-19T22:03:05.086Z,24.29
2019-05-19T22:05:34.760Z,24.23
2019-05-19T22:08:10.563Z,24.03
2019-05-19T22:10:40.338Z,24.11
2019-05-19T22:13:10.061Z,24.25
2019-05-19T22:15:39.787Z,24.03
2019-05-19T22:18:09.444Z,23.99
2019-05-19T22:20:39.130Z,23.84
2019-05-19T22:23:08.811Z,23.89
2019-05-19T22:25:38.556Z,24.04
2019-05-19T22:28:08.291Z,23.78
2019-05-19T22:30:37.969Z,23.72
2019-05-19T22:33:07.727Z,23.86
2019-05-19T22:35:37.416Z,23.54
2019-05-19T22:38:09.421Z,23.59
2019-05-19T22:40:38.528Z,23.60
2019-05-19T22:43:08.243Z,23.37
2019-05-19T22:45:37.964Z,23.23
2019-05-19T22:48:07.629Z,23.09
2019-05-19T22:50:37.351Z,23.49
2019-05-19T22:53:07.004Z,23.46
2019-05-19T22:55:36.656Z,23.20
2019-05-19T22:58:06.332Z,23.06
2019-05-19T23:00:36.066Z,23.07
2019-05-19T23:03:05.937Z,23.25
2019-05-19T23:05:35.638Z,22.89
2019-05-19T23:08:05.274Z,22.99
2019-05-19T23:10:34.947Z,22.38
2019-05-19T23:13:04.717Z,21.88
2019-05-19T23:15:34.455Z,21.86
2019-05-19T23:18:04.103Z,21.91
2019-05-19T23:20:33.835Z,21.96
2019-05-19T23:23:03.542Z,22.31
2019-05-19T23:25:33.195Z,22.20
2019-05-19T23:28:02.955Z,22.31
2019-05-19T23:30:32.634Z,21.63
2019-05-19T23:33:02.291Z,21.62
2019-05-19T23:35:31.970Z,21.52
2019-05-19T23:38:01.655Z,21.47
2019-05-19T23:40:31.352Z,20.98
2019-05-19T23:43:01.018Z,20.74
2019-05-19T23:45:30.713Z,20.84
2019-05-19T23:48:00.388Z,20.85
2019-05-19T23:50:30.081Z,20.84
2019-05-19T23:52:59.791Z,21.06
2019-05-19T23:55:29.424Z,20.97
2019-05-19T23:57:59.117Z,20.87
